createdAt,value
2023-03-21T00:01:27.055Z,6.27
2023-03-21T00:04:50.914Z,6.28
2023-03-21T00:08:04.601Z,6.22
2023-03-21T00:11:17.320Z,6.21
2023-03-21T00:14:31.018Z,6.07
2023-03-21T00:17:44.903Z,6.02
2023-03-21T00:24:35.355Z,5.93
2023-03-21T00:28:05.153Z,5.99
2023-03-21T00:31:21.321Z,6.00
2023-03-21T00:34:43.627Z,6.00
2023-03-21T00:38:02.497Z,5.86
2023-03-21T00:41:25.847Z,5.96
2023-03-21T00:44:44.871Z,5.87
2023-03-21T00:47:57.547Z,5.94
2023-03-21T00:51:15.620Z,6.02
2023-03-21T00:54:27.959Z,6.05
2023-03-21T00:57:42.268Z,6.07
2023-03-21T01:00:54.857Z,6.07
2023-03-21T01:04:13.262Z,6.02
2023-03-21T01:07:25.673Z,6.06
2023-03-21T01:10:39.965Z,5.81
2023-03-21T01:13:59.771Z,5.71
2023-03-21T01:17:17.587Z,5.84
2023-03-21T01:20:30.245Z,5.94
2023-03-21T01:23:42.961Z,5.69
2023-03-21T01:26:55.329Z,5.44
2023-03-21T01:30:19.129Z,5.34
2023-03-21T01:33:33.142Z,5.41
2023-03-21T01:36:45.789Z,5.38
2023-03-21T01:39:58.548Z,5.41
2023-03-21T01:43:32.201Z,5.53
2023-03-21T01:47:11.488Z,5.46
2023-03-21T01:50:26.314Z,5.54
2023-03-21T01:53:39.841Z,6.08
2023-03-21T01:56:54.194Z,6.29
2023-03-21T02:00:12.561Z,6.42
2023-03-21T02:03:50.086Z,6.39
2023-03-21T02:07:18.086Z,6.63
2023-03-21T02:10:31.640Z,6.69
2023-03-21T02:13:44.788Z,6.68
2023-03-21T02:17:27.086Z,6.85
2023-03-21T02:21:01.923Z,6.74
2023-03-21T02:24:36.994Z,6.65
2023-03-21T02:27:58.602Z,6.41
2023-03-21T02:31:39.093Z,6.40
2023-03-21T02:35:10.598Z,6.27
2023-03-21T02:38:54.771Z,6.41
2023-03-21T02:42:27.626Z,6.82
2023-03-21T02:45:49.862Z,7.27
2023-03-21T02:49:15.487Z,7.34
2023-03-21T02:56:13.036Z,7.45
2023-03-21T02:59:27.175Z,7.56
2023-03-21T03:02:41.662Z,7.66
2023-03-21T03:05:57.036Z,7.64
2023-03-21T03:09:19.725Z,7.82
2023-03-21T03:12:41.951Z,7.95
2023-03-21T03:16:19.886Z,7.94
2023-03-21T03:19:44.697Z,7.96
2023-03-21T03:23:15.531Z,8.03
2023-03-21T03:26:44.838Z,8.03
2023-03-21T03:29:59.366Z,8.10
2023-03-21T03:33:12.450Z,8.10
2023-03-21T03:36:32.520Z,8.11
2023-03-21T03:39:54.108Z,8.11
2023-03-21T03:43:10.388Z,8.21
2023-03-21T03:46:38.913Z,8.03
2023-03-21T03:50:01.034Z,7.95
2023-03-21T03:53:18.844Z,7.98
2023-03-21T03:56:31.826Z,8.07
2023-03-21T03:59:45.289Z,7.90
2023-03-21T04:02:59.848Z,7.86
2023-03-21T04:06:13.663Z,7.70
2023-03-21T04:09:41.200Z,7.82
2023-03-21T04:12:56.337Z,7.78
2023-03-21T04:16:10.068Z,7.79
2023-03-21T04:19:22.899Z,7.89
2023-03-21T04:22:35.821Z,8.01
2023-03-21T04:25:56.378Z,8.00
2023-03-21T04:29:10.800Z,8.03
2023-03-21T04:32:26.494Z,7.97
2023-03-21T04:35:39.778Z,8.04
2023-03-21T04:38:52.756Z,8.13
2023-03-21T04:42:05.322Z,8.15
2023-03-21T04:45:17.995Z,8.26
2023-03-21T04:48:30.566Z,8.29
2023-03-21T04:51:45.450Z,8.25
2023-03-21T04:54:57.999Z,8.26
2023-03-21T04:58:10.621Z,8.28
2023-03-21T05:01:23.048Z,8.38
2023-03-21T05:04:35.689Z,8.40
2023-03-21T05:07:48.037Z,8.50
2023-03-21T05:11:00.885Z,8.49
2023-03-21T05:14:15.616Z,8.66
2023-03-21T05:17:28.610Z,8.71
2023-03-21T05:20:44.776Z,8.72
2023-03-21T05:23:58.472Z,8.72
2023-03-21T05:27:14.061Z,8.70
2023-03-21T05:30:26.920Z,8.70
2023-03-21T05:33:45.446Z,8.68
2023-03-21T05:37:00.980Z,8.61
2023-03-21T05:40:14.807Z,8.48
2023-03-21T05:43:27.957Z,8.36
2023-03-21T05:46:40.403Z,8.49
2023-03-21T05:49:53.492Z,8.66
2023-03-21T05:53:07.132Z,8.60
2023-03-21T05:56:20.408Z,8.71
2023-03-21T05:59:33.177Z,8.70
2023-03-21T06:02:46.892Z,8.83
2023-03-21T06:06:01.236Z,8.97
2023-03-21T06:09:14.248Z,9.11
2023-03-21T06:12:27.822Z,9.26
2023-03-21T06:15:40.598Z,9.41
2023-03-21T06:18:55.338Z,9.62
2023-03-21T06:22:08.423Z,9.88
2023-03-21T06:25:21.937Z,9.96
2023-03-21T06:28:34.500Z,10.26
2023-03-21T06:31:47.786Z,10.48
2023-03-21T06:35:00.883Z,10.80
2023-03-21T06:38:14.572Z,10.97
2023-03-21T06:41:27.505Z,10.97
2023-03-21T06:44:41.077Z,10.99
2023-03-21T06:47:53.642Z,11.04
2023-03-21T06:51:09.126Z,10.99
2023-03-21T06:54:23.084Z,10.96
2023-03-21T06:57:36.172Z,11.00
2023-03-21T07:00:49.198Z,10.98
2023-03-21T07:04:02.155Z,10.99
2023-03-21T07:07:15.797Z,11.11
2023-03-21T07:10:28.700Z,11.28
2023-03-21T07:13:41.522Z,11.49
2023-03-21T07:16:54.287Z,11.64
2023-03-21T07:20:08.360Z,11.92
2023-03-21T07:23:22.223Z,12.13
2023-03-21T07:26:34.641Z,12.28
2023-03-21T07:29:50.407Z,12.43
2023-03-21T07:33:03.031Z,12.62
2023-03-21T07:36:16.006Z,12.74
2023-03-21T07:39:29.555Z,12.91
2023-03-21T07:42:42.483Z,13.09
2023-03-21T07:45:58.459Z,13.29
2023-03-21T07:49:12.142Z,13.37
2023-03-21T07:52:24.748Z,13.49
2023-03-21T07:55:37.660Z,13.69
2023-03-21T07:58:50.206Z,13.88
2023-03-21T08:02:03.160Z,13.93
2023-03-21T08:05:16.249Z,13.90
2023-03-21T08:08:28.839Z,13.85
2023-03-21T08:11:41.457Z,14.00
2023-03-21T08:14:53.929Z,13.93
2023-03-21T08:18:06.666Z,14.16
2023-03-21T08:21:19.231Z,14.26
2023-03-21T08:24:31.972Z,14.16
2023-03-21T08:27:44.812Z,14.24
2023-03-21T08:30:57.589Z,14.34
2023-03-21T08:34:10.035Z,14.42
2023-03-21T08:37:23.070Z,14.71
2023-03-21T08:40:35.924Z,14.73
2023-03-21T08:43:48.973Z,14.69
2023-03-21T08:47:01.543Z,14.96
2023-03-21T08:50:17.496Z,14.90
2023-03-21T08:53:29.974Z,14.93
2023-03-21T08:56:42.683Z,15.17
2023-03-21T08:59:55.296Z,15.18
2023-03-21T09:03:09.439Z,15.23
2023-03-21T09:06:24.798Z,15.49
2023-03-21T09:09:37.501Z,15.41
2023-03-21T09:12:51.012Z,15.47
2023-03-21T09:16:05.265Z,15.38
2023-03-21T09:19:18.042Z,15.66
2023-03-21T09:22:31.036Z,15.78
2023-03-21T09:25:46.085Z,15.90
2023-03-21T09:29:01.093Z,15.70
2023-03-21T09:32:13.517Z,15.88
2023-03-21T09:35:27.135Z,15.99
2023-03-21T09:38:45.778Z,16.18
2023-03-21T09:42:04.778Z,15.81
2023-03-21T09:45:17.335Z,15.94
2023-03-21T09:48:54.359Z,16.18
2023-03-21T09:52:18.859Z,16.37
2023-03-21T09:55:35.093Z,16.25
2023-03-21T09:58:53.292Z,16.76
2023-03-21T10:02:33.816Z,16.55
2023-03-21T10:05:46.907Z,16.61
2023-03-21T10:09:07.476Z,16.48
2023-03-21T10:12:24.754Z,16.39
2023-03-21T10:15:37.430Z,16.25
2023-03-21T10:18:50.436Z,16.31
2023-03-21T10:22:03.982Z,16.06
2023-03-21T10:25:37.361Z,16.20
2023-03-21T10:28:53.069Z,16.02
2023-03-21T10:32:09.201Z,16.44
2023-03-21T10:35:21.729Z,16.72
2023-03-21T10:38:34.465Z,16.73
2023-03-21T10:41:46.842Z,16.79
2023-03-21T10:44:59.520Z,16.90
2023-03-21T10:48:14.771Z,16.89
2023-03-21T10:51:35.673Z,17.19
2023-03-21T10:54:48.533Z,16.75
2023-03-21T10:58:10.925Z,16.19
2023-03-21T11:01:36.637Z,16.10
2023-03-21T11:04:55.347Z,16.44
2023-03-21T11:08:17.105Z,16.56
2023-03-21T11:11:38.965Z,16.71
2023-03-21T11:14:51.358Z,16.92
2023-03-21T11:18:15.494Z,17.18
2023-03-21T11:21:29.723Z,16.84
2023-03-21T11:24:43.445Z,17.50
2023-03-21T11:27:55.946Z,17.30
2023-03-21T11:31:15.669Z,17.19
2023-03-21T11:34:33.553Z,17.26
2023-03-21T11:37:48.987Z,17.52
2023-03-21T11:41:01.665Z,17.59
2023-03-21T11:44:34.480Z,17.98
2023-03-21T11:47:47.862Z,17.51
2023-03-21T11:51:11.442Z,16.70
2023-03-21T11:54:36.052Z,16.79
2023-03-21T11:58:13.841Z,17.15
2023-03-21T12:02:01.299Z,17.09
2023-03-21T12:05:23.118Z,16.82
2023-03-21T12:08:42.529Z,16.64
2023-03-21T12:12:37.924Z,16.46
2023-03-21T12:16:05.729Z,16.40
2023-03-21T12:19:38.384Z,16.45
2023-03-21T12:23:23.174Z,16.49
2023-03-21T12:26:46.912Z,16.39
2023-03-21T12:30:17.510Z,16.54
2023-03-21T12:33:36.942Z,16.45
2023-03-21T12:37:36.885Z,16.44
2023-03-21T12:41:14.443Z,16.47
2023-03-21T12:44:29.116Z,16.55
2023-03-21T12:47:43.018Z,16.72
2023-03-21T12:50:56.295Z,16.87
2023-03-21T12:54:26.817Z,16.64
2023-03-21T12:57:56.491Z,16.81
2023-03-21T13:01:10.681Z,16.84
2023-03-21T13:04:43.856Z,16.66
2023-03-21T13:08:03.604Z,16.78
2023-03-21T13:11:21.279Z,16.72
2023-03-21T13:14:36.841Z,16.89
2023-03-21T13:17:54.518Z,17.06
2023-03-21T13:21:24.457Z,17.67
2023-03-21T13:24:48.623Z,18.28
2023-03-21T13:28:02.875Z,18.37
2023-03-21T13:31:22.613Z,18.71
2023-03-21T13:34:38.643Z,18.47
2023-03-21T13:37:53.773Z,18.50
2023-03-21T13:41:18.090Z,18.42
2023-03-21T13:44:44.111Z,18.28
2023-03-21T13:47:58.648Z,18.55
2023-03-21T13:51:11.491Z,18.50
2023-03-21T13:54:30.727Z,18.21
2023-03-21T13:57:43.029Z,17.60
2023-03-21T14:01:16.165Z,17.14
2023-03-21T14:04:42.404Z,16.91
2023-03-21T14:08:12.647Z,16.85
2023-03-21T14:11:27.791Z,17.39
2023-03-21T14:14:42.217Z,17.64
2023-03-21T14:17:56.102Z,18.04
2023-03-21T14:21:24.297Z,17.86
2023-03-21T14:24:37.497Z,18.26
2023-03-21T14:27:52.705Z,18.26
2023-03-21T14:31:05.717Z,18.16
2023-03-21T14:34:18.338Z,18.19
2023-03-21T14:37:30.858Z,18.35
2023-03-21T14:40:50.072Z,18.37
2023-03-21T14:44:27.967Z,18.38
2023-03-21T14:47:40.406Z,18.66
2023-03-21T14:50:54.160Z,18.89
2023-03-21T14:54:06.578Z,18.48
2023-03-21T14:57:25.092Z,18.95
2023-03-21T15:00:37.691Z,18.87
2023-03-21T15:03:50.718Z,19.08
2023-03-21T15:07:05.209Z,18.74
2023-03-21T15:10:18.149Z,18.73
2023-03-21T15:13:49.682Z,18.58
2023-03-21T15:17:04.215Z,18.78
2023-03-21T15:20:16.944Z,18.67
2023-03-21T15:23:35.856Z,18.93
2023-03-21T15:26:48.735Z,18.78
2023-03-21T15:30:01.347Z,18.47
2023-03-21T15:33:14.740Z,18.45
2023-03-21T15:36:29.345Z,18.45
2023-03-21T15:39:41.774Z,19.02
2023-03-21T15:43:08.222Z,18.67
2023-03-21T15:46:48.284Z,18.62
2023-03-21T15:50:02.564Z,18.34
2023-03-21T15:53:17.215Z,18.47
2023-03-21T15:56:34.775Z,18.45
2023-03-21T15:59:47.950Z,18.71
2023-03-21T16:03:03.043Z,18.65
2023-03-21T16:06:20.759Z,18.36
2023-03-21T16:09:44.119Z,18.21
2023-03-21T16:12:56.847Z,17.95
2023-03-21T16:16:19.911Z,18.05
2023-03-21T16:19:32.530Z,17.82
2023-03-21T16:22:44.842Z,17.37
2023-03-21T16:25:58.976Z,16.93
2023-03-21T16:29:12.706Z,16.68
2023-03-21T16:32:25.345Z,16.43
2023-03-21T16:35:37.731Z,16.28
2023-03-21T16:38:52.646Z,16.17
2023-03-21T16:42:05.065Z,15.90
2023-03-21T16:45:17.867Z,15.71
2023-03-21T16:48:30.318Z,15.45
2023-03-21T16:51:43.021Z,15.30
2023-03-21T16:54:55.359Z,15.12
2023-03-21T16:58:08.037Z,15.00
2023-03-21T17:01:21.179Z,14.83
2023-03-21T17:04:33.812Z,14.75
2023-03-21T17:07:47.149Z,14.51
2023-03-21T17:10:59.993Z,14.42
2023-03-21T17:14:12.764Z,14.28
2023-03-21T17:17:25.412Z,14.13
2023-03-21T17:20:40.211Z,14.03
2023-03-21T17:23:53.223Z,13.90
2023-03-21T17:27:07.550Z,13.67
2023-03-21T17:30:33.982Z,13.50
2023-03-21T17:33:46.885Z,13.33
2023-03-21T17:36:59.536Z,13.25
2023-03-21T17:40:12.388Z,13.18
2023-03-21T17:43:25.060Z,13.10
2023-03-21T17:46:37.571Z,12.96
2023-03-21T17:49:50.232Z,12.80
2023-03-21T17:53:04.020Z,12.77
2023-03-21T17:56:27.241Z,12.76
2023-03-21T17:59:39.604Z,12.76
2023-03-21T18:02:52.352Z,12.70
2023-03-21T18:06:05.732Z,12.67
2023-03-21T18:09:21.555Z,12.58
2023-03-21T18:12:34.422Z,12.55
2023-03-21T18:15:48.339Z,12.47
2023-03-21T18:19:01.085Z,12.40
2023-03-21T18:22:13.673Z,12.25
2023-03-21T18:25:26.348Z,12.18
2023-03-21T18:28:39.748Z,12.17
2023-03-21T18:32:05.427Z,12.11
2023-03-21T18:35:19.797Z,12.01
2023-03-21T18:38:32.592Z,12.04
2023-03-21T18:41:46.276Z,12.02
2023-03-21T18:44:59.048Z,11.94
2023-03-21T18:48:13.624Z,11.86
2023-03-21T18:51:26.453Z,11.80
2023-03-21T18:54:39.109Z,11.73
2023-03-21T18:57:53.995Z,11.66
2023-03-21T19:01:06.820Z,11.53
2023-03-21T19:04:28.723Z,11.45
2023-03-21T19:07:42.223Z,11.31
2023-03-21T19:10:59.579Z,11.25
2023-03-21T19:14:14.422Z,11.14
2023-03-21T19:18:21.845Z,11.16
2023-03-21T19:21:01.327Z,11.10
2023-03-21T19:24:27.164Z,11.06
2023-03-21T19:27:41.280Z,11.05
2023-03-21T19:30:55.540Z,11.05
2023-03-21T19:34:08.054Z,11.17
2023-03-21T19:37:20.858Z,11.15
2023-03-21T19:40:33.318Z,11.12
2023-03-21T19:43:54.148Z,10.96
2023-03-21T19:47:07.700Z,10.85
2023-03-21T19:50:57.968Z,10.84
2023-03-21T19:53:52.690Z,10.73
2023-03-21T19:57:05.573Z,10.68
2023-03-21T20:00:18.799Z,10.62
2023-03-21T20:03:31.732Z,10.52
2023-03-21T20:06:44.176Z,10.48
2023-03-21T20:09:57.476Z,10.42
2023-03-21T20:13:09.952Z,10.29
2023-03-21T20:16:23.156Z,10.19
2023-03-21T20:19:35.579Z,10.12
2023-03-21T20:26:22.123Z,9.86
2023-03-21T20:33:07.060Z,9.91
2023-03-21T20:36:38.850Z,9.85
2023-03-21T20:39:52.708Z,9.98
2023-03-21T20:43:33.510Z,10.03
2023-03-21T20:46:38.035Z,10.00
2023-03-21T20:49:50.870Z,9.98
2023-03-21T20:53:07.259Z,9.93
2023-03-21T20:56:20.755Z,9.98
2023-03-21T20:59:33.627Z,10.14
2023-03-21T21:02:47.604Z,9.97
2023-03-21T21:06:00.033Z,9.99
2023-03-21T21:09:12.664Z,10.33
2023-03-21T21:12:28.643Z,10.09
2023-03-21T21:15:42.241Z,10.08
2023-03-21T21:18:54.635Z,10.08
2023-03-21T21:22:07.295Z,10.08
2023-03-21T21:25:19.639Z,10.09
2023-03-21T21:28:38.508Z,10.08
2023-03-21T21:31:51.082Z,10.13
2023-03-21T21:35:04.083Z,10.17
2023-03-21T21:38:19.922Z,10.27
2023-03-21T21:41:32.533Z,10.50
2023-03-21T21:44:45.182Z,10.71
2023-03-21T21:47:58.058Z,10.70
2023-03-21T21:51:10.456Z,10.73
2023-03-21T21:54:23.184Z,10.59
2023-03-21T21:57:35.959Z,10.56
2023-03-21T22:00:50.127Z,10.55
2023-03-21T22:04:06.226Z,10.49
2023-03-21T22:07:19.592Z,10.35
2023-03-21T22:10:32.589Z,10.39
2023-03-21T22:13:45.453Z,10.22
2023-03-21T22:16:59.875Z,10.18
2023-03-21T22:20:14.495Z,10.12
2023-03-21T22:23:28.023Z,9.97
2023-03-21T22:26:40.446Z,9.87
2023-03-21T22:29:53.194Z,9.81
2023-03-21T22:33:09.745Z,9.68
2023-03-21T22:36:22.803Z,9.61
2023-03-21T22:39:35.141Z,9.51
2023-03-21T22:42:47.731Z,9.49
2023-03-21T22:46:01.966Z,9.49
2023-03-21T22:49:14.873Z,9.40
2023-03-21T22:52:27.350Z,9.28
2023-03-21T22:55:40.069Z,9.22
2023-03-21T22:58:52.568Z,9.13
2023-03-21T23:02:05.191Z,9.05
2023-03-21T23:05:17.610Z,9.02
2023-03-21T23:08:30.561Z,9.03
2023-03-21T23:11:45.217Z,8.99
2023-03-21T23:14:57.872Z,8.98
2023-03-21T23:18:10.177Z,8.89
2023-03-21T23:21:23.817Z,8.85
2023-03-21T23:24:36.163Z,8.73
2023-03-21T23:27:48.783Z,8.71
2023-03-21T23:31:07.027Z,8.74
2023-03-21T23:34:19.694Z,8.70
2023-03-21T23:37:32.211Z,8.63
2023-03-21T23:40:44.845Z,8.56
2023-03-21T23:43:57.222Z,8.42
2023-03-21T23:47:09.874Z,8.27
2023-03-21T23:50:22.202Z,8.26
2023-03-21T23:53:34.810Z,8.16
2023-03-21T23:56:47.129Z,8.11
2023-03-21T23:59:59.854Z,8.11
